Warning: Javascript must be enabled to use all the features on this page!


Page Loading - Please Wait...

Click to hideNews Bulletins

Peak Streamflow for the Nation

USGS 13127000 BIG LOST RIVER BL MACKAY RES NR MACKAY ID

Custer County, Idaho
Hydrologic Unit Code 17040218
Latitude  43°56'21", Longitude 113°38'54" NAD83
Drainage area 801  square miles
Gage datum 5,946.39 feet above NGVD29
Output formats
Table
Graph
Tab-separated file
peakfq (watstore) format
Reselect output format
Water
Year
Date Gage
Height
(feet)
Stream-
flow
(cfs)
1904 1904-06-19   1,7606
1905 1905-06-14   1,1206
1906 1906-06-14   1,4506
1912 1912-06-09   1,4506
1913 1913-05-31   1,7406
1914 1914-06-04   1,8806
1919 1919-05-30 3.03 8816
1920 1920-06-23 3.34 1,0106
1921 1921-06-10 5.79 2,9906
1922 1922-06-18 4.97 2,1606
1923 1923-06-13 3.85 1,3506
1924 1923-10-14 3.02 8126
1925 1925-05-22 3.97 1,3806
1926 1926-05-24 2.91 7006
1927 1927-06-17 4.14 1,4306
1928 1928-05-27 3.99 1,2206
1929 1929-06-17 3.27 8026
1930 1930-05-30 4.25 1,3706
1931 1931-06-16 2.90 6206
1932 1932-05-23 4.27 1,4306
1933 1933-06-18 4.52 1,6106
1934 1934-06-21 2.68 5396
1935 1935-06-22 3.93 1,2806
1936 1936-07-01 3.46 9906
1937 1937-05-30 3.06 7156
1938 1938-06-05 5.56 2,5206
1939 1938-11-15 4.27 1,4806
1940 1940-06-19 3.09 8356
1941 1941-06-24 3.39 9586
1942 1942-06-10 4.39 1,5906
1943 1943-06-20 4.84 1,9606
1944 1944-07-03 4.99 1,9606
1945 1945-06-26 4.68 1,7706
1946 1946-06-07 4.10 1,3106
1947 1947-05-10 3.77 1,1206
1948 1948-06-10 4.74 1,7906
1949 1949-06-15 3.58 1,0306
1950 1950-07-07 3.35 9116
1951 1951-05-30 4.62 1,7906
1952 1952-06-08 5.14 2,1306
1953 1953-06-21 4.68 1,7306
1954 1954-06-27 4.74 1,8606
1955 1955-06-14 3.89 1,1306
1956 1956-06-03 5.63 2,5306
1957 1957-06-08 5.55 2,4006
1958 1958-05-26 5.65 2,5206
1959 1959-06-14 3.70 1,1106
1960 1960-06-07 3.62 1,0706
1961 1961-06-15 3.11 6866
1962 1962-06-15 3.79 1,1506
1963 1963-06-16 4.91 1,9606
1964 1964-06-28 4.43 1,5506
1965 1965-06-14 5.89 2,6406
1966 1966-06-01 3.24 7866
1967 1967-06-23 5.642 2,4306
1968 1968-06-20 4.53 1,6206
1969 1969-05-28 4.43 1,5406
1970 1970-06-28 5.24 2,1506
1971 1971-06-24 5.26 2,2006
1972 1972-06-18 4.25 1,4806
1973 1973-05-25 3.71 1,0906
1974 1974-06-17 5.93 2,7906
1975 1975-07-06 5.48 2,2706
1976 1976-05-27 4.30 1,4306
1977 1977-06-10 3.14 7726
1978 1978-06-12 4.02 1,3606
1979 1979-05-28 4.23 1,5806
1980 1980-07-04 4.53 1,6706
1981 1981-06-09 5.27 2,2306
1982 1982-06-30 5.65 2,4906
1983 1983-06-14 5.02 2,0706
1984 1984-06-30 4.99 2,0306
1985 1985-06-12 3.47 9366
1986 1986-06-06 6.08 2,9906
1987 1987-05-26 3.18 8186
1988 1988-06-21 3.11 7256
1989 1989-06-23 2.93 6236
1990 1990-06-27 3.15 7476
1991 1991-06-26 3.06 6856
1992 1992-05-14 2.88 5866
1993 1993-06-23 4.58 1,7506
1994 1994-06-11 2.85 5806
1995 1995-07-12 5.652 2,8806
1996 1996-06-10 5.08 2,1806
1997 1997-06-11 5.45 2,5206
1998 1998-06-26 4.82 1,9506
1999 1999-06-22 4.97 2,0806
2000 2000-06-09   7396
2001 2001-06-03   6206
2002 2002-05-18 2.80 5546
2003 2003-06-12   8706
2004 2004-05-16 2.87 5916
2005 2005-05-30 4.07 1,3506
2006 2006-06-09 5.52 2,5806
2007 2007-05-15 2.87 5916
2008 2008-06-24 3.29 8296
2009 2009-06-21 4.64 1,8006
2010 2010-06-08   1,6906
2011 2011-06-30 4.77 1,9106
2012 2012-06-05 4.05 1,3406
2013 2013-06-11 3.30 8116
2014 2014-06-06 3.12 7326
2015 2015-06-10 3.15 7526
2016 2016-06-09 3.91 1,2806
2017 2017-06-10 5.09 2,2806
2018 2018-05-27 4.95 2,1506
2019 2019-06-17 4.19 1,5306
2020 2020-06-07 2.78 5616
?
  Peak Gage-Height Qualification Codes.
?
  Peak Streamflow Qualification Codes.